| time (UTC) | temp F | wind direction | speed knots | gust knots | rain 1hr in | rain 24hr in | rain mn in | humidity % | barometer mb |
| 20260505152001 | 73 | 264 | 0.9 | 2.6 | 0.00 | 0.00 | 0.00 | 47 | 1018.5 |
| 20260505151159 | 73 | 208 | 0.9 | 1.7 | 0.00 | 0.00 | 0.00 | 47 | 1018.3 |
| 20260505124758 | 53 | 132 | 0.0 | 0.0 | 0.00 | 0.00 | 0.00 | 72 | 1016.9 |
| 20260505122359 | 50 | 133 | 0.0 | 0.0 | 0.00 | 0.00 | 0.00 | 72 | 1016.7 |
| 20260505121559 | 49 | 133 | 0.0 | 0.0 | 0.00 | 0.00 | 0.00 | 73 | 1016.8 |
| 20260505120759 | 48 | 132 | 0.0 | 0.0 | 0.00 | 0.00 | 0.00 | 73 | 1016.9 |
| 20260505120000 | 47 | 133 | 0.0 | 0.0 | 0.00 | 0.00 | 0.00 | 74 | 1016.8 |
| 20260505115158 | 47 | 132 | 0.0 | 0.0 | 0.00 | 0.00 | 0.00 | 75 | 1016.8 |
| 20260505114359 | 46 | 132 | 0.0 | 0.0 | 0.00 | 0.00 | 0.00 | 75 | 1016.5 |
| 20260505113559 | 46 | 132 | 0.0 | 0.0 | 0.00 | 0.00 | 0.00 | 75 | 1016.3 |
| 20260505112758 | 46 | 133 | 0.0 | 0.0 | 0.00 | 0.00 | 0.00 | 75 | 1016.3 |
| 20260505112000 | 45 | 133 | 0.0 | 0.0 | 0.00 | 0.00 | 0.00 | 76 | 1016.3 |
| 20260505111158 | 45 | 133 | 0.0 | 0.0 | 0.00 | 0.00 | 0.00 | 77 | 1016.2 |
| 20260505110358 | 44 | 133 | 0.0 | 0.0 | 0.00 | 0.00 | 0.00 | 78 | 1016.2 |
| 20260505101559 | 45 | 132 | 0.0 | 0.0 | 0.00 | 0.00 | 0.00 | 77 | 1016.5 |
| 20260505100759 | 45 | 133 | 0.0 | 0.0 | 0.00 | 0.00 | 0.00 | 80 | 1016.4 |
| 20260505095959 | 45 | 133 | 0.0 | 0.0 | 0.00 | 0.00 | 0.00 | 80 | 1016.4 |
| 20260505095159 | 45 | 133 | 0.0 | 0.0 | 0.00 | 0.00 | 0.00 | 80 | 1016.6 |
| 20260505093558 | 45 | 132 | 0.0 | 0.0 | 0.00 | 0.00 | 0.00 | 80 | 1016.5 |
| 20260505092758 | 45 | 132 | 0.0 | 0.0 | 0.00 | 0.00 | 0.00 | 80 | 1016.5 |
| 20260505091959 | 46 | 132 | 0.0 | 0.0 | 0.00 | 0.00 | 0.00 | 80 | 1016.6 |
| 20260505091158 | 46 | 133 | 0.0 | 0.0 | 0.00 | 0.00 | 0.00 | 80 | 1016.8 |
| 20260505090359 | 46 | 132 | 0.0 | 0.0 | 0.00 | 0.00 | 0.00 | 80 | 1016.8 |
| 20260505085558 | 46 | 132 | 0.0 | 0.0 | 0.00 | 0.00 | 0.00 | 81 | 1016.9 |
| 20260505084758 | 46 | 132 | 0.0 | 0.0 | 0.00 | 0.00 | 0.00 | 81 | 1016.9 |
| 20260505084000 | 46 | 133 | 0.0 | 0.0 | 0.00 | 0.00 | 0.00 | 81 | 1016.9 |
| 20260505083159 | 46 | 132 | 0.0 | 0.0 | 0.00 | 0.00 | 0.00 | 81 | 1017.0 |
| 20260505082358 | 46 | 133 | 0.0 | 0.0 | 0.00 | 0.00 | 0.00 | 81 | 1016.8 |
| 20260505081558 | 46 | 133 | 0.0 | 0.0 | 0.00 | 0.00 | 0.00 | 81 | 1016.8 |
| 20260505080758 | 46 | 133 | 0.0 | 0.0 | 0.00 | 0.00 | 0.00 | 82 | 1016.8 |
| 20260505080002 | 46 | 132 | 0.0 | 0.0 | 0.00 | 0.00 | 0.00 | 81 | 1016.7 |
| 20260505075159 | 46 | 133 | 0.0 | 0.0 | 0.00 | 0.00 | 0.00 | 82 | 1016.7 |
| 20260505074359 | 46 | 132 | 0.0 | 0.0 | 0.00 | 0.00 | 0.00 | 82 | 1016.6 |
| 20260505073558 | 47 | 132 | 0.0 | 0.0 | 0.00 | 0.00 | 0.00 | 82 | 1016.6 |
| 20260505071958 | 47 | 132 | 0.0 | 0.0 | 0.00 | 0.00 | 0.00 | 82 | 1016.8 |
| 20260505071158 | 47 | 133 | 0.0 | 0.0 | 0.00 | 0.00 | 0.00 | 82 | 1016.7 |
| 20260505070359 | 47 | 133 | 0.0 | 0.0 | 0.00 | 0.00 | 0.00 | 82 | 1016.6 |
| 20260505065559 | 48 | 132 | 0.0 | 0.0 | 0.00 | 0.00 | 0.00 | 82 | 1016.6 |
| 20260505064759 | 48 | 132 | 0.0 | 0.0 | 0.00 | 0.00 | 0.00 | 82 | 1016.6 |
| 20260505063959 | 48 | 133 | 0.0 | 0.0 | 0.00 | 0.00 | 0.00 | 82 | 1016.5 |
| 20260505063159 | 48 | 132 | 0.0 | 0.0 | 0.00 | 0.00 | 0.00 | 82 | 1016.5 |
| 20260505062359 | 48 | 132 | 0.0 | 0.0 | 0.00 | 0.00 | 0.00 | 82 | 1016.5 |
| 20260505060759 | 49 | 132 | 0.0 | 0.0 | 0.00 | 0.00 | 0.00 | 82 | 1016.7 |
| 20260505060002 | 49 | 132 | 0.0 | 0.0 | 0.00 | 0.00 | 0.00 | 82 | 1016.8 |
| 20260505055158 | 49 | 133 | 0.0 | 0.0 | 0.00 | 0.00 | 0.00 | 82 | 1016.7 |
| 20260505054359 | 49 | 133 | 0.0 | 0.0 | 0.00 | 0.00 | 0.00 | 82 | 1016.8 |
| 20260505053558 | 49 | 133 | 0.0 | 0.0 | 0.00 | 0.00 | 0.00 | 81 | 1016.7 |
| 20260505052759 | 49 | 132 | 0.0 | 0.0 | 0.00 | 0.00 | 0.00 | 81 | 1016.8 |
| 20260505052000 | 50 | 132 | 0.0 | 0.0 | 0.00 | 0.00 | 0.00 | 81 | 1016.8 |
| 20260505051158 | 50 | 132 | 0.0 | 0.0 | 0.00 | 0.00 | 0.00 | 81 | 1016.8 |
| 20260505050359 | 50 | 132 | 0.0 | 0.0 | 0.00 | 0.00 | 0.00 | 81 | 1016.9 |
| 20260505041600 | 51 | 132 | 0.0 | 0.0 | 0.00 | 0.00 | 0.00 | 80 | 1016.5 |
| 20260505040800 | 51 | 133 | 0.0 | 0.0 | 0.00 | 0.00 | 0.00 | 80 | 1016.6 |
| 20260505040006 | 51 | 133 | 0.0 | 0.0 | 0.00 | 0.00 | 0.00 | 80 | 1016.7 |
| 20260505035200 | 52 | 132 | 0.0 | 0.0 | 0.00 | 0.00 | 0.00 | 80 | 1016.7 |
| 20260505034401 | 52 | 133 | 0.0 | 0.0 | 0.00 | 0.00 | 0.00 | 78 | 1016.8 |
| 20260505033602 | 52 | 132 | 0.0 | 0.0 | 0.00 | 0.00 | 0.00 | 79 | 1016.8 |
| 20260505030401 | 53 | 133 | 0.0 | 0.0 | 0.00 | 0.00 | 0.00 | 76 | 1016.9 |
| 20260505025600 | 53 | 132 | 0.0 | 0.0 | 0.00 | 0.00 | 0.00 | 75 | 1016.8 |
| 20260505024800 | 54 | 132 | 0.0 | 0.0 | 0.00 | 0.00 | 0.00 | 74 | 1016.8 |
| 20260505024000 | 54 | 133 | 0.0 | 0.0 | 0.00 | 0.00 | 0.00 | 73 | 1016.8 |
| 20260505023200 | 54 | 132 | 0.0 | 0.0 | 0.00 | 0.00 | 0.00 | 71 | 1016.8 |
| 20260505022403 | 55 | 132 | 0.0 | 0.0 | 0.00 | 0.00 | 0.00 | 70 | 1016.8 |
| 20260505021601 | 55 | 133 | 0.0 | 0.0 | 0.00 | 0.00 | 0.00 | 69 | 1016.8 |
| 20260505020759 | 56 | 133 | 0.0 | 0.0 | 0.00 | 0.00 | 0.00 | 67 | 1016.7 |
| 20260505020004 | 57 | 133 | 0.0 | 0.0 | 0.00 | 0.00 | 0.00 | 66 | 1016.7 |
| 20260505015200 | 57 | 133 | 0.0 | 0.0 | 0.00 | 0.00 | 0.00 | 66 | 1016.6 |
| 20260505013600 | 59 | 132 | 0.0 | 0.0 | 0.00 | 0.00 | 0.00 | 61 | 1016.5 |
| 20260505012001 | 61 | 132 | 0.0 | 0.0 | 0.00 | 0.00 | 0.00 | 56 | 1016.4 |
| 20260505011201 | 62 | 133 | 0.0 | 0.0 | 0.00 | 0.00 | 0.00 | 53 | 1016.3 |
| 20260505010400 | 63 | 132 | 0.0 | 0.0 | 0.00 | 0.00 | 0.00 | 50 | 1016.3 |
| 20260505005600 | 64 | 133 | 0.0 | 0.0 | 0.00 | 0.00 | 0.00 | 48 | 1016.2 |
| 20260505004001 | 67 | 133 | 0.0 | 0.0 | 0.00 | 0.00 | 0.00 | 43 | 1016.1 |
| 20260505003200 | 68 | 133 | 0.0 | 0.0 | 0.00 | 0.00 | 0.00 | 41 | 1016.1 |
| 20260505002400 | 69 | 133 | 0.0 | 0.0 | 0.00 | 0.00 | 0.00 | 39 | 1016.0 |
| 20260505001601 | 70 | 133 | 0.0 | 0.0 | 0.00 | 0.00 | 0.00 | 38 | 1016.0 |
| 20260505000800 | 71 | 133 | 0.0 | 0.0 | 0.00 | 0.00 | 0.00 | 36 | 1016.0 |
| 20260505000001 | 72 | 132 | 0.0 | 0.9 | 0.00 | 0.00 | 0.00 | 35 | 1016.0 |
| 20260504235200 | 72 | 133 | 0.0 | 0.9 | 0.00 | 0.00 | 0.00 | 35 | 1015.9 |
| 20260504234359 | 73 | 259 | 0.0 | 0.0 | 0.00 | 0.00 | 0.00 | 33 | 1015.9 |
| 20260504233600 | 74 | 259 | 0.0 | 0.0 | 0.00 | 0.00 | 0.00 | 31 | 1015.9 |
| 20260504232759 | 75 | 117 | 0.0 | 0.0 | 0.00 | 0.00 | 0.00 | 31 | 1015.9 |
| 20260504231159 | 78 | 117 | 0.0 | 1.7 | 0.00 | 0.00 | 0.00 | 27 | 1015.9 |
| 20260504230359 | 79 | 184 | 0.0 | 0.9 | 0.00 | 0.00 | 0.00 | 24 | 1016.0 |
| 20260504225559 | 78 | 183 | 0.0 | 3.5 | 0.00 | 0.00 | 0.00 | 24 | 1016.0 |
| 20260504224759 | 79 | 139 | 0.0 | 3.5 | 0.00 | 0.00 | 0.00 | 23 | 1016.0 |
| 20260504222400 | 80 | 139 | 0.0 | 3.5 | 0.00 | 0.00 | 0.00 | 25 | 1016.1 |
| 20260504221600 | 80 | 242 | 0.9 | 3.5 | 0.00 | 0.00 | 0.00 | 22 | 1016.0 |
| 20260504220759 | 79 | 169 | 0.0 | 1.7 | 0.00 | 0.00 | 0.00 | 24 | 1016.1 |
| 20260504220000 | 80 | 243 | 0.0 | 0.9 | 0.00 | 0.00 | 0.00 | 24 | 1016.0 |
| 20260504214359 | 79 | 135 | 0.0 | 3.5 | 0.00 | 0.00 | 0.00 | 25 | 1016.1 |
| 20260504213559 | 79 | 131 | 0.0 | 0.9 | 0.00 | 0.00 | 0.00 | 22 | 1016.1 |
| 20260504212800 | 79 | 225 | 0.0 | 1.7 | 0.00 | 0.00 | 0.00 | 21 | 1016.1 |
| 20260504212000 | 78 | 252 | 0.9 | 2.6 | 0.00 | 0.00 | 0.00 | 23 | 1016.1 |
| 20260504211159 | 78 | 133 | 0.0 | 3.5 | 0.00 | 0.00 | 0.00 | 23 | 1016.0 |
| 20260504210359 | 78 | 126 | 0.0 | 2.6 | 0.00 | 0.00 | 0.00 | 23 | 1016.7 |
| 20260504205559 | 79 | 290 | 0.9 | 2.6 | 0.00 | 0.00 | 0.00 | 22 | 1016.2 |
| 20260504204000 | 79 | 188 | 0.9 | 2.6 | 0.00 | 0.00 | 0.00 | 25 | 1016.3 |
| 20260504203159 | 79 | 311 | 0.0 | 1.7 | 0.00 | 0.00 | 0.00 | 24 | 1016.4 |
| 20260504201600 | 79 | 148 | 0.0 | 1.7 | 0.00 | 0.00 | 0.00 | 27 | 1016.7 |
| 20260504200759 | 78 | 98 | 0.9 | 2.6 | 0.00 | 0.00 | 0.00 | 24 | 1016.7 |
| 20260504200003 | 78 | 123 | 0.0 | 1.7 | 0.00 | 0.00 | 0.00 | 24 | 1016.8 |
| 20260504195201 | 77 | 47 | 0.9 | 4.3 | 0.00 | 0.00 | 0.00 | 25 | 1016.8 |
| 20260504194401 | 77 | 232 | 0.0 | 1.7 | 0.00 | 0.00 | 0.00 | 25 | 1016.9 |
| 20260504193601 | 76 | 116 | 0.0 | 3.5 | 0.00 | 0.00 | 0.00 | 28 | 1016.9 |
| 20260504192801 | 76 | 170 | 0.9 | 2.6 | 0.00 | 0.00 | 0.00 | 26 | 1017.1 |
| 20260504192001 | 76 | 342 | 1.7 | 2.6 | 0.00 | 0.00 | 0.00 | 26 | 1017.1 |
| 20260504191200 | 76 | 242 | 1.7 | 3.5 | 0.00 | 0.00 | 0.00 | 29 | 1017.2 |
| 20260504190400 | 75 | 114 | 0.0 | 0.9 | 0.00 | 0.00 | 0.00 | 30 | 1017.3 |
| 20260504184759 | 75 | 274 | 0.9 | 3.5 | 0.00 | 0.00 | 0.00 | 30 | 1017.7 |
| 20260504183959 | 75 | 197 | 0.0 | 2.6 | 0.00 | 0.00 | 0.00 | 29 | 1017.8 |
| 20260504183159 | 75 | 346 | 0.9 | 2.6 | 0.00 | 0.00 | 0.00 | 28 | 1017.8 |
| 20260504182358 | 75 | 6 | 0.0 | 3.5 | 0.00 | 0.00 | 0.00 | 29 | 1018.0 |
| 20260504181559 | 74 | 33 | 0.9 | 4.3 | 0.00 | 0.00 | 0.00 | 27 | 1018.0 |
| 20260504180800 | 74 | 285 | 0.0 | 2.6 | 0.00 | 0.00 | 0.00 | 28 | 1018.1 |
| 20260504175201 | 74 | 291 | 0.9 | 2.6 | 0.00 | 0.00 | 0.00 | 28 | 1018.3 |
| 20260504173600 | 73 | 267 | 0.0 | 2.6 | 0.00 | 0.00 | 0.00 | 30 | 1018.5 |
| 20260504172802 | 73 | 354 | 0.9 | 2.6 | 0.00 | 0.00 | 0.00 | 29 | 1018.5 |
| 20260504170401 | 73 | 75 | 0.0 | 1.7 | 0.00 | 0.00 | 0.00 | 34 | 1018.9 |